Main page
METAR-TAF:

METAR-TAF

Airports :

RAF Valley

Valley, Wales

latitude: 53-15N, longitude: 004-32W, elevation: 1 m

Current weather observation

The report was made 1 hour and 12 minutes ago, at 06:50 UTC
Wind 7 kt from the North
Temperature 6°C
Humidity 93%
Pressure 1015 hPa
Visibility: 6000 m
haze

METAR: EGOV 200650Z AUTO 01007KT 6000 HZ OVC023/// 06/05 Q1015

Time: 08:02 (08:02 UTC)


TAF: missing

Weather observations and forecasts of more than 4000 airports (METAR and TAF reports).

The available stations are represented by yellow and red dots on the map.

Hover mouse over dot to see the name of the station.

Then click to see weather observations and forecasts.

To change the map : click on the green buttons with a black cross to zoom in, on the green button with a dash to zoom out, or on the green arrows for adjacent maps.


METAR-TAF: